createdAt,value
2023-02-11T00:01:42.635Z,99341.75
2023-02-11T00:04:09.043Z,99337.47
2023-02-11T00:06:36.125Z,99330.47
2023-02-11T00:09:02.554Z,99325.38
2023-02-11T00:11:29.060Z,99319.38
2023-02-11T00:13:59.040Z,99328.41
2023-02-11T00:16:26.045Z,99330.22
2023-02-11T00:18:52.531Z,99316.28
2023-02-11T00:21:18.917Z,99316.50
2023-02-11T00:23:45.952Z,99310.53
2023-02-11T00:26:12.310Z,99309.75
2023-02-11T00:28:39.658Z,99304.59
2023-02-11T00:31:06.032Z,99311.78
2023-02-11T00:33:32.384Z,99299.47
2023-02-11T00:35:58.720Z,99307.66
2023-02-11T00:38:25.348Z,99311.34
2023-02-11T00:40:53.789Z,99303.56
2023-02-11T00:43:20.001Z,99291.25
2023-02-11T00:45:46.348Z,99260.38
2023-02-11T00:48:12.886Z,99256.03
2023-02-11T00:50:39.280Z,99277.31
2023-02-11T00:53:05.980Z,99284.50
2023-02-11T00:55:32.263Z,99284.50
2023-02-11T00:57:58.962Z,99281.03
2023-02-11T01:00:25.286Z,99274.06
2023-02-11T01:02:52.331Z,99293.50
2023-02-11T01:05:19.023Z,99300.66
2023-02-11T01:07:45.515Z,99298.00
2023-02-11T01:10:15.436Z,99303.50
2023-02-11T01:12:41.753Z,99320.50
2023-02-11T01:15:08.459Z,99329.31
2023-02-11T01:17:34.751Z,99324.19
2023-02-11T01:20:01.543Z,99331.31
2023-02-11T01:22:28.513Z,99334.97
2023-02-11T01:24:54.879Z,99329.88
2023-02-11T01:27:21.426Z,99326.41
2023-02-11T01:29:47.695Z,99308.78
2023-02-11T01:32:14.216Z,99309.81
2023-02-11T01:34:41.021Z,99302.84
2023-02-11T01:37:07.343Z,99298.16
2023-02-11T01:39:33.868Z,99291.84
2023-02-11T01:42:00.900Z,99285.28
2023-02-11T01:44:27.161Z,99273.03
2023-02-11T01:46:53.522Z,99286.78
2023-02-11T01:49:19.972Z,99291.59
2023-02-11T01:51:46.297Z,99296.38
2023-02-11T01:54:12.645Z,99283.50
2023-02-11T01:56:39.023Z,99286.59
2023-02-11T02:01:49.673Z,99284.38
2023-02-11T02:04:16.234Z,99286.47
2023-02-11T02:06:42.817Z,99270.06
2023-02-11T02:09:09.437Z,99296.28
2023-02-11T02:11:35.924Z,99285.47
2023-02-11T02:14:02.222Z,99280.94
2023-02-11T02:16:28.583Z,99281.56
2023-02-11T02:18:55.082Z,99273.78
2023-02-11T02:21:24.512Z,99264.34
2023-02-11T02:23:50.876Z,99279.91
2023-02-11T02:26:17.194Z,99273.56
2023-02-11T02:28:43.577Z,99271.28
2023-02-11T02:31:10.605Z,99268.19
2023-02-11T02:33:39.173Z,99276.38
2023-02-11T02:36:05.901Z,99269.44
2023-02-11T02:38:32.149Z,99265.09
2023-02-11T02:40:58.392Z,99256.53
2023-02-11T02:43:25.004Z,99254.03
2023-02-11T02:45:51.724Z,99246.25
2023-02-11T02:48:18.919Z,99236.84
2023-02-11T02:50:45.226Z,99242.56
2023-02-11T02:53:11.540Z,99237.84
2023-02-11T02:55:38.201Z,99241.72
2023-02-11T02:58:05.469Z,99240.50
2023-02-11T03:00:32.560Z,99241.69
2023-02-11T03:02:58.903Z,99237.63
2023-02-11T03:05:25.993Z,99242.50
2023-02-11T03:07:52.369Z,99260.53
2023-02-11T03:10:18.671Z,99262.56
2023-02-11T03:12:44.928Z,99261.28
2023-02-11T03:15:14.295Z,99254.34
2023-02-11T03:17:40.667Z,99246.72
2023-02-11T03:20:06.997Z,99246.09
2023-02-11T03:22:33.926Z,99230.53
2023-02-11T03:25:00.322Z,99231.75
2023-02-11T03:27:26.905Z,99220.50
2023-02-11T03:32:38.007Z,99223.56
2023-02-11T03:35:04.421Z,99214.94
2023-02-11T03:37:30.862Z,99220.47
2023-02-11T03:39:57.183Z,99222.50
2023-02-11T03:42:24.023Z,99212.88
2023-02-11T03:44:50.358Z,99216.56
2023-02-11T03:47:16.786Z,99205.09
2023-02-11T03:49:43.041Z,99206.94
2023-02-11T03:52:09.311Z,99207.94
2023-02-11T03:54:35.594Z,99200.16
2023-02-11T03:57:01.878Z,99205.69
2023-02-11T03:59:28.302Z,99211.00
2023-02-11T04:01:54.594Z,99205.88
2023-02-11T04:04:22.106Z,99198.75
2023-02-11T04:06:49.007Z,99186.44
2023-02-11T04:09:16.061Z,99182.97
2023-02-11T04:11:42.376Z,99173.34
2023-02-11T04:14:08.667Z,99169.84
2023-02-11T04:16:35.792Z,99184.19
2023-02-11T04:19:02.165Z,99186.84
2023-02-11T04:21:28.469Z,99194.19
2023-02-11T04:23:54.779Z,99191.53
2023-02-11T04:26:21.141Z,99187.25
2023-02-11T04:28:51.353Z,99188.25
2023-02-11T04:31:17.882Z,99183.97
2023-02-11T04:33:44.440Z,99187.41
2023-02-11T04:36:10.728Z,99192.38
2023-02-11T04:38:37.050Z,99191.13
2023-02-11T04:41:03.495Z,99183.63
2023-02-11T04:43:29.839Z,99193.69
2023-02-11T04:45:56.169Z,99194.13
2023-02-11T04:48:22.613Z,99195.81
2023-02-11T04:50:48.967Z,99204.69
2023-02-11T04:53:16.076Z,99190.19
2023-02-11T04:55:42.874Z,99183.00
2023-02-11T04:58:09.402Z,99187.75
2023-02-11T05:00:36.328Z,99189.16
2023-02-11T05:03:03.412Z,99192.63
2023-02-11T05:05:32.924Z,99189.38
2023-02-11T05:07:59.393Z,99196.13
2023-02-11T05:10:25.714Z,99184.47
2023-02-11T05:12:55.277Z,99185.25
2023-02-11T05:15:22.115Z,99176.25
2023-02-11T05:17:48.535Z,99179.13
2023-02-11T05:20:15.009Z,99187.34
2023-02-11T05:22:41.381Z,99183.84
2023-02-11T05:25:07.797Z,99188.56
2023-02-11T05:27:34.421Z,99191.44
2023-02-11T05:30:00.872Z,99179.94
2023-02-11T05:32:27.454Z,99192.44
2023-02-11T05:34:54.138Z,99196.97
2023-02-11T05:37:20.619Z,99200.63
2023-02-11T05:39:47.089Z,99204.34
2023-02-11T05:42:13.361Z,99200.22
2023-02-11T05:44:39.664Z,99198.81
2023-02-11T05:47:06.070Z,99200.84
2023-02-11T05:49:32.363Z,99196.75
2023-02-11T05:51:58.674Z,99203.09
2023-02-11T05:54:25.138Z,99205.97
2023-02-11T05:56:51.596Z,99209.84
2023-02-11T05:59:17.994Z,99199.41
2023-02-11T06:01:44.484Z,99188.97
2023-02-11T06:04:10.814Z,99185.69
2023-02-11T06:06:38.033Z,99175.84
2023-02-11T06:09:04.427Z,99183.00
2023-02-11T06:11:30.803Z,99184.03
2023-02-11T06:13:57.198Z,99184.03
2023-02-11T06:16:23.609Z,99188.34
2023-02-11T06:18:49.996Z,99191.22
2023-02-11T06:21:16.320Z,99189.38
2023-02-11T06:23:43.124Z,99188.34
2023-02-11T06:26:09.453Z,99191.00
2023-02-11T06:28:35.824Z,99188.34
2023-02-11T06:31:02.278Z,99188.13
2023-02-11T06:33:28.765Z,99183.00
2023-02-11T06:35:55.370Z,99182.00
2023-02-11T06:38:21.685Z,99188.97
2023-02-11T06:40:47.961Z,99196.13
2023-02-11T06:43:14.363Z,99203.31
2023-02-11T06:45:40.665Z,99205.78
2023-02-11T06:48:07.397Z,99190.59
2023-02-11T06:50:33.759Z,99189.56
2023-02-11T06:53:00.062Z,99197.56
2023-02-11T06:55:26.500Z,99185.25
2023-02-11T06:57:52.851Z,99195.91
2023-02-11T07:00:19.230Z,99195.91
2023-02-11T07:02:47.945Z,99197.78
2023-02-11T07:05:14.332Z,99194.28
2023-02-11T07:07:41.025Z,99205.16
2023-02-11T07:10:07.338Z,99203.31
2023-02-11T07:12:33.629Z,99198.00
2023-02-11T07:14:59.926Z,99201.44
2023-02-11T07:17:27.178Z,99217.22
2023-02-11T07:19:53.461Z,99207.59
2023-02-11T07:22:20.526Z,99203.09
2023-02-11T07:24:46.867Z,99203.91
2023-02-11T07:27:13.200Z,99202.06
2023-02-11T07:29:39.534Z,99208.22
2023-02-11T07:32:05.907Z,99210.88
2023-02-11T07:34:32.276Z,99209.06
2023-02-11T07:36:58.654Z,99209.06
2023-02-11T07:39:25.246Z,99215.19
2023-02-11T07:41:54.821Z,99217.03
2023-02-11T07:44:21.399Z,99218.88
2023-02-11T07:46:48.613Z,99213.56
2023-02-11T07:49:14.879Z,99222.38
2023-02-11T07:51:41.271Z,99227.50
2023-02-11T07:54:08.139Z,99232.00
2023-02-11T07:56:34.531Z,99236.50
2023-02-11T07:59:00.986Z,99237.53
2023-02-11T08:01:27.744Z,99252.47
2023-02-11T08:03:54.001Z,99251.84
2023-02-11T08:06:20.343Z,99256.16
2023-02-11T08:08:46.952Z,99261.72
2023-02-11T08:11:13.233Z,99258.22
2023-02-11T08:13:39.561Z,99258.22
2023-02-11T08:16:05.907Z,99253.91
2023-02-11T08:18:34.520Z,99252.06
2023-02-11T08:21:01.407Z,99252.25
2023-02-11T08:23:28.233Z,99254.31
2023-02-11T08:25:54.474Z,99251.63
2023-02-11T08:28:20.793Z,99257.19
2023-02-11T08:30:47.134Z,99262.72
2023-02-11T08:33:13.738Z,99261.88
2023-02-11T08:35:40.455Z,99270.91
2023-02-11T08:38:06.785Z,99265.78
2023-02-11T08:40:33.663Z,99261.47
2023-02-11T08:43:00.492Z,99259.00
2023-02-11T08:45:26.888Z,99256.53
2023-02-11T08:47:53.149Z,99264.94
2023-02-11T08:50:19.537Z,99267.59
2023-02-11T08:52:45.887Z,99266.78
2023-02-11T08:55:12.487Z,99268.81
2023-02-11T08:57:39.428Z,99275.19
2023-02-11T09:00:05.669Z,99281.50
2023-02-11T09:02:32.153Z,99285.22
2023-02-11T09:04:58.459Z,99294.22
2023-02-11T09:07:24.735Z,99299.72
2023-02-11T09:09:51.030Z,99300.75
2023-02-11T09:12:18.010Z,99299.94
2023-02-11T09:14:44.489Z,99288.47
2023-02-11T09:17:11.427Z,99286.81
2023-02-11T09:19:37.856Z,99280.66
2023-02-11T09:22:04.272Z,99286.00
2023-02-11T09:24:30.812Z,99284.38
2023-02-11T09:26:58.007Z,99288.66
2023-02-11T09:29:24.305Z,99285.19
2023-02-11T09:31:50.775Z,99292.16
2023-02-11T09:34:17.091Z,99285.81
2023-02-11T09:36:43.389Z,99282.13
2023-02-11T09:39:09.685Z,99280.50
2023-02-11T09:41:36.190Z,99282.94
2023-02-11T09:44:02.468Z,99282.75
2023-02-11T09:46:28.877Z,99286.41
2023-02-11T09:48:56.294Z,99296.91
2023-02-11T09:51:24.550Z,99294.22
2023-02-11T09:53:51.779Z,99301.19
2023-02-11T09:56:18.582Z,99291.38
2023-02-11T09:58:44.892Z,99293.81
2023-02-11T10:01:11.311Z,99301.59
2023-02-11T10:03:37.738Z,99296.28
2023-02-11T10:06:04.174Z,99299.34
2023-02-11T10:08:30.810Z,99306.13
2023-02-11T10:10:57.120Z,99310.22
2023-02-11T10:13:23.492Z,99306.53
2023-02-11T10:15:50.791Z,99317.81
2023-02-11T10:18:18.319Z,99327.25
2023-02-11T10:20:44.662Z,99334.00
2023-02-11T10:23:11.549Z,99332.16
2023-02-11T10:25:38.062Z,99344.28
2023-02-11T10:28:04.679Z,99336.09
2023-02-11T10:30:31.116Z,99337.72
2023-02-11T10:32:58.579Z,99332.19
2023-02-11T10:35:25.168Z,99334.84
2023-02-11T10:37:51.602Z,99336.50
2023-02-11T10:40:18.048Z,99338.34
2023-02-11T10:42:44.524Z,99341.84
2023-02-11T10:45:11.100Z,99337.34
2023-02-11T10:47:37.576Z,99333.00
2023-02-11T10:50:03.900Z,99333.00
2023-02-11T10:52:30.330Z,99331.38
2023-02-11T10:54:59.378Z,99328.72
2023-02-11T10:57:26.023Z,99334.06
2023-02-11T10:59:52.432Z,99340.38
2023-02-11T11:02:19.319Z,99334.84
2023-02-11T11:04:45.931Z,99340.38
2023-02-11T11:07:12.301Z,99339.38
2023-02-11T11:09:39.042Z,99337.72
2023-02-11T11:12:05.322Z,99332.38
2023-02-11T11:14:31.721Z,99335.88
2023-02-11T11:16:58.419Z,99327.06
2023-02-11T11:19:24.879Z,99341.00
2023-02-11T11:21:51.345Z,99350.03
2023-02-11T11:24:17.636Z,99344.09
2023-02-11T11:26:44.056Z,99340.59
2023-02-11T11:29:10.976Z,99337.09
2023-02-11T11:31:37.640Z,99331.75
2023-02-11T11:34:04.087Z,99332.81
2023-02-11T11:36:31.242Z,99329.31
2023-02-11T11:38:57.660Z,99326.63
2023-02-11T11:41:23.998Z,99333.84
2023-02-11T11:43:50.880Z,99330.34
2023-02-11T11:46:17.267Z,99325.84
2023-02-11T11:48:43.858Z,99323.19
2023-02-11T11:51:10.999Z,99315.19
2023-02-11T11:53:37.436Z,99309.25
2023-02-11T11:56:03.767Z,99308.19
2023-02-11T11:58:31.242Z,99313.53
2023-02-11T12:00:57.578Z,99309.25
2023-02-11T12:03:24.131Z,99315.38
2023-02-11T12:05:50.586Z,99306.56
2023-02-11T12:08:17.021Z,99317.22
2023-02-11T12:10:45.372Z,99311.91
2023-02-11T12:13:11.712Z,99300.41
2023-02-11T12:15:39.330Z,99307.56
2023-02-11T12:18:05.595Z,99308.41
2023-02-11T12:20:31.942Z,99314.78
2023-02-11T12:22:59.109Z,99318.22
2023-02-11T12:25:26.489Z,99322.56
2023-02-11T12:27:52.819Z,99318.03
2023-02-11T12:30:19.925Z,99322.97
2023-02-11T12:32:46.522Z,99319.06
2023-02-11T12:35:13.229Z,99325.66
2023-02-11T12:37:39.503Z,99322.56
2023-02-11T12:40:05.862Z,99317.03
2023-02-11T12:42:33.257Z,99325.44
2023-02-11T12:44:59.733Z,99318.91
2023-02-11T12:47:28.904Z,99319.53
2023-02-11T12:49:55.270Z,99327.31
2023-02-11T12:52:21.706Z,99320.16
2023-02-11T12:54:48.351Z,99321.56
2023-02-11T12:57:14.642Z,99319.94
2023-02-11T12:59:42.011Z,99313.59
2023-02-11T13:02:08.813Z,99314.41
2023-02-11T13:04:36.433Z,99308.88
2023-02-11T13:07:02.800Z,99303.53
2023-02-11T13:09:29.122Z,99309.91
2023-02-11T13:11:56.256Z,99298.41
2023-02-11T13:14:22.863Z,99302.94
2023-02-11T13:16:49.368Z,99302.94
2023-02-11T13:19:16.017Z,99310.91
2023-02-11T13:21:42.572Z,99311.94
2023-02-11T13:24:08.857Z,99304.97
2023-02-11T13:26:35.173Z,99301.50
2023-02-11T13:31:45.658Z,99311.34
2023-02-11T13:34:12.124Z,99323.00
2023-02-11T13:36:38.481Z,99316.88
2023-02-11T13:39:05.097Z,99312.75
2023-02-11T13:41:31.545Z,99312.75
2023-02-11T13:43:58.601Z,99314.78
2023-02-11T13:46:25.049Z,99311.13
2023-02-11T13:48:51.447Z,99311.13
2023-02-11T13:51:18.268Z,99298.81
2023-02-11T13:53:44.796Z,99300.47
2023-02-11T13:56:11.061Z,99311.75
2023-02-11T13:58:37.455Z,99295.75
2023-02-11T14:01:03.876Z,99300.88
2023-02-11T14:03:31.027Z,99303.53
2023-02-11T14:05:57.387Z,99304.56
2023-02-11T14:08:23.731Z,99308.03
2023-02-11T14:10:51.486Z,99319.75
2023-02-11T14:13:18.890Z,99320.53
2023-02-11T14:15:45.958Z,99324.25
2023-02-11T14:18:12.404Z,99327.72
2023-02-11T14:20:42.222Z,99326.06
2023-02-11T14:23:08.875Z,99329.78
2023-02-11T14:25:35.327Z,99340.44
2023-02-11T14:28:01.822Z,99343.09
2023-02-11T14:30:29.000Z,99339.59
2023-02-11T14:32:55.328Z,99348.41
2023-02-11T14:35:21.648Z,99343.88
2023-02-11T14:37:50.656Z,99348.41
2023-02-11T14:40:17.993Z,99346.75
2023-02-11T14:42:44.320Z,99349.44
2023-02-11T14:45:10.775Z,99354.75
2023-02-11T14:47:37.880Z,99361.13
2023-02-11T14:50:04.358Z,99360.28
2023-02-11T14:52:31.359Z,99358.66
2023-02-11T14:54:58.849Z,99354.97
2023-02-11T14:57:25.171Z,99363.59
2023-02-11T14:59:55.169Z,99356.41
2023-02-11T15:02:21.787Z,99355.38
2023-02-11T15:04:48.750Z,99366.66
2023-02-11T15:07:15.130Z,99363.59
2023-02-11T15:09:42.151Z,99371.38
2023-02-11T15:12:08.843Z,99373.03
2023-02-11T15:14:35.307Z,99375.50
2023-02-11T15:17:01.650Z,99374.66
2023-02-11T15:19:27.948Z,99371.00
2023-02-11T15:21:54.259Z,99374.47
2023-02-11T15:24:20.586Z,99374.47
2023-02-11T15:26:46.965Z,99383.09
2023-02-11T15:29:13.884Z,99375.91
2023-02-11T15:31:40.292Z,99383.09
2023-02-11T15:34:06.739Z,99382.06
2023-02-11T15:36:33.602Z,99384.75
2023-02-11T15:38:59.970Z,99392.72
2023-02-11T15:41:26.342Z,99394.38
2023-02-11T15:43:52.632Z,99397.25
2023-02-11T15:46:19.275Z,99390.28
2023-02-11T15:48:45.684Z,99388.63
2023-02-11T15:51:11.997Z,99394.78
2023-02-11T15:53:38.613Z,99400.09
2023-02-11T15:56:04.951Z,99402.16
2023-02-11T15:58:31.287Z,99395.97
2023-02-11T16:00:57.599Z,99387.34
2023-02-11T16:03:23.886Z,99410.34
2023-02-11T16:05:50.225Z,99395.34
2023-02-11T16:08:16.607Z,99396.41
2023-02-11T16:10:44.774Z,99390.22
2023-02-11T16:13:11.013Z,99390.22
2023-02-11T16:15:38.297Z,99391.69
2023-02-11T16:18:04.650Z,99396.19
2023-02-11T16:20:31.017Z,99408.31
2023-02-11T16:23:00.552Z,99407.28
2023-02-11T16:25:27.502Z,99407.06
2023-02-11T16:27:54.521Z,99408.72
2023-02-11T16:30:21.096Z,99418.16
2023-02-11T16:32:47.394Z,99417.94
2023-02-11T16:35:14.075Z,99425.78
2023-02-11T16:37:40.880Z,99426.38
2023-02-11T16:40:07.938Z,99407.69
2023-02-11T16:42:35.440Z,99428.69
2023-02-11T16:45:01.749Z,99426.63
2023-02-11T16:47:29.182Z,99428.06
2023-02-11T16:49:55.524Z,99423.16
2023-02-11T16:52:21.823Z,99428.91
2023-02-11T16:54:48.132Z,99433.03
2023-02-11T16:57:14.488Z,99433.63
2023-02-11T16:59:40.974Z,99428.91
2023-02-11T17:02:07.340Z,99438.34
2023-02-11T17:04:33.781Z,99440.63
2023-02-11T17:07:01.004Z,99439.59
2023-02-11T17:09:31.023Z,99447.19
2023-02-11T17:11:57.641Z,99440.03
2023-02-11T17:14:24.022Z,99442.28
2023-02-11T17:16:50.346Z,99445.78
2023-02-11T17:19:19.969Z,99440.22
2023-02-11T17:21:46.354Z,99440.81
2023-02-11T17:24:13.023Z,99436.31
2023-02-11T17:26:39.369Z,99439.00
2023-02-11T17:29:05.614Z,99440.66
2023-02-11T17:31:32.329Z,99447.41
2023-02-11T17:33:58.729Z,99444.75
2023-02-11T17:36:25.318Z,99448.22
2023-02-11T17:38:54.453Z,99437.56
2023-02-11T17:41:20.704Z,99449.88
2023-02-11T17:43:47.023Z,99446.19
2023-02-11T17:46:13.552Z,99452.31
2023-02-11T17:48:40.817Z,99440.84
2023-02-11T17:51:07.389Z,99456.88
2023-02-11T17:53:33.897Z,99461.16
2023-02-11T17:56:00.284Z,99466.28
2023-02-11T17:58:26.896Z,99479.63
2023-02-11T18:00:55.736Z,99474.50
2023-02-11T18:03:22.323Z,99474.50
2023-02-11T18:05:49.386Z,99484.34
2023-02-11T18:08:16.076Z,99489.66
2023-02-11T18:10:42.760Z,99491.53
2023-02-11T18:13:09.297Z,99494.41
2023-02-11T18:15:35.941Z,99498.09
2023-02-11T18:18:02.311Z,99490.28
2023-02-11T18:20:28.696Z,99495.63
2023-02-11T18:22:55.184Z,99503.84
2023-02-11T18:25:21.623Z,99496.84
2023-02-11T18:27:48.195Z,99498.69
2023-02-11T18:30:14.552Z,99498.69
2023-02-11T18:32:40.851Z,99502.38
2023-02-11T18:35:07.957Z,99503.22
2023-02-11T18:37:34.423Z,99514.69
2023-02-11T18:40:00.831Z,99504.84
2023-02-11T18:42:27.606Z,99511.00
2023-02-11T18:44:53.936Z,99511.00
2023-02-11T18:47:20.296Z,99518.00
2023-02-11T18:49:46.793Z,99518.00
2023-02-11T18:52:13.310Z,99523.34
2023-02-11T18:54:40.489Z,99523.94
2023-02-11T18:57:06.882Z,99527.63
2023-02-11T18:59:35.388Z,99537.25
2023-02-11T19:02:05.463Z,99536.25
2023-02-11T19:04:32.078Z,99535.22
2023-02-11T19:06:59.500Z,99523.56
2023-02-11T19:09:26.067Z,99531.56
2023-02-11T19:11:52.450Z,99523.56
2023-02-11T19:14:18.795Z,99521.88
2023-02-11T19:16:46.198Z,99526.22
2023-02-11T19:19:18.692Z,99528.06
2023-02-11T19:21:45.273Z,99528.88
2023-02-11T19:24:11.586Z,99536.06
2023-02-11T19:26:38.981Z,99535.22
2023-02-11T19:29:05.689Z,99533.59
2023-02-11T19:31:34.059Z,99531.94
2023-02-11T19:34:00.494Z,99530.28
2023-02-11T19:36:27.283Z,99530.50
2023-02-11T19:38:53.540Z,99535.00
2023-02-11T19:41:19.924Z,99530.72
2023-02-11T19:43:46.610Z,99530.09
2023-02-11T19:46:18.081Z,99532.75
2023-02-11T19:48:45.799Z,99544.25
2023-02-11T19:51:13.387Z,99549.78
2023-02-11T19:53:40.210Z,99545.25
2023-02-11T19:56:07.052Z,99545.25
2023-02-11T19:58:33.707Z,99553.06
2023-02-11T20:01:03.216Z,99552.03
2023-02-11T20:03:29.796Z,99552.84
2023-02-11T20:05:56.717Z,99553.69
2023-02-11T20:08:28.566Z,99560.69
2023-02-11T20:10:55.140Z,99563.94
2023-02-11T20:13:21.800Z,99559.44
2023-02-11T20:15:48.457Z,99566.22
2023-02-11T20:18:15.159Z,99567.84
2023-02-11T20:20:41.771Z,99566.03
2023-02-11T20:23:10.280Z,99562.31
2023-02-11T20:25:40.225Z,99570.31
2023-02-11T20:28:07.011Z,99566.84
2023-02-11T20:30:34.172Z,99572.19
2023-02-11T20:33:00.971Z,99579.16
2023-02-11T20:35:27.383Z,99572.19
2023-02-11T20:37:53.809Z,99579.34
2023-02-11T20:40:20.275Z,99570.53
2023-02-11T20:42:47.232Z,99572.34
2023-02-11T20:45:13.671Z,99567.22
2023-02-11T20:47:40.609Z,99568.91
2023-02-11T20:50:06.983Z,99569.09
2023-02-11T20:52:33.397Z,99565.59
2023-02-11T20:54:59.726Z,99561.47
2023-02-11T20:57:26.522Z,99566.81
2023-02-11T20:59:52.931Z,99575.03
2023-02-11T21:02:24.680Z,99573.38
2023-02-11T21:04:51.247Z,99573.38
2023-02-11T21:07:17.634Z,99576.06
2023-02-11T21:09:44.578Z,99578.09
2023-02-11T21:12:11.025Z,99574.59
2023-02-11T21:14:37.563Z,99585.47
2023-02-11T21:17:04.212Z,99591.84
2023-02-11T21:19:30.639Z,99591.00
2023-02-11T21:21:57.120Z,99607.00
2023-02-11T21:24:23.723Z,99606.16
2023-02-11T21:26:50.194Z,99612.53
2023-02-11T21:29:16.612Z,99609.88
2023-02-11T21:31:43.722Z,99616.84
2023-02-11T21:34:10.451Z,99621.38
2023-02-11T21:36:36.807Z,99626.72
2023-02-11T21:39:03.132Z,99623.22
2023-02-11T21:41:29.481Z,99622.16
2023-02-11T21:43:57.246Z,99623.22
2023-02-11T21:46:23.543Z,99632.84
2023-02-11T21:48:49.900Z,99625.88
2023-02-11T21:51:16.357Z,99631.22
2023-02-11T21:53:42.657Z,99638.38
2023-02-11T21:56:08.942Z,99634.06
2023-02-11T21:58:35.344Z,99634.88
2023-02-11T22:01:01.972Z,99634.06
2023-02-11T22:03:28.396Z,99626.06
2023-02-11T22:05:55.778Z,99638.59
2023-02-11T22:08:23.141Z,99643.91
2023-02-11T22:10:49.590Z,99651.28
2023-02-11T22:13:16.669Z,99653.13
2023-02-11T22:18:29.006Z,99652.50
2023-02-11T22:20:55.318Z,99657.03
2023-02-11T22:23:21.599Z,99657.03
2023-02-11T22:25:47.878Z,99666.03
2023-02-11T22:28:14.240Z,99662.75
2023-02-11T22:30:40.735Z,99662.75
2023-02-11T22:33:07.833Z,99669.09
2023-02-11T22:35:35.118Z,99673.78
2023-02-11T22:38:02.027Z,99678.31
2023-02-11T22:40:28.432Z,99683.66
2023-02-11T22:42:54.756Z,99676.66
2023-02-11T22:45:21.107Z,99671.53
2023-02-11T22:47:48.040Z,99674.19
2023-02-11T22:50:14.354Z,99672.56
2023-02-11T22:52:40.746Z,99677.06
2023-02-11T22:55:07.059Z,99677.25
2023-02-11T22:57:33.470Z,99677.25
2023-02-11T22:59:59.729Z,99679.28
2023-02-11T23:02:25.968Z,99676.81
2023-02-11T23:04:52.355Z,99683.16
2023-02-11T23:07:19.197Z,99687.69
2023-02-11T23:09:45.626Z,99696.69
2023-02-11T23:12:11.956Z,99697.72
2023-02-11T23:14:39.193Z,99702.22
2023-02-11T23:17:05.563Z,99701.38
2023-02-11T23:19:31.872Z,99698.91
2023-02-11T23:21:58.578Z,99705.28
2023-02-11T23:24:24.939Z,99719.59
2023-02-11T23:26:51.303Z,99711.59
2023-02-11T23:29:22.625Z,99710.81
2023-02-11T23:31:49.574Z,99716.34
2023-02-11T23:34:16.123Z,99714.63
2023-02-11T23:36:42.446Z,99713.81
2023-02-11T23:39:08.749Z,99724.47
2023-02-11T23:41:36.206Z,99721.19
2023-02-11T23:44:02.498Z,99707.88
2023-02-11T23:46:29.035Z,99708.88
2023-02-11T23:48:56.001Z,99710.72
2023-02-11T23:51:22.387Z,99705.56
2023-02-11T23:53:48.872Z,99710.09
2023-02-11T23:56:15.596Z,99715.44
2023-02-11T23:58:42.066Z,99713.75
